Time;durP1;ratioP1;P1;durP2;ratioP2;P2;SDS_P1;SDS_P2;PMS_P1;PMS_P2;Temp;Humidity;BMP_temperature;BMP_pressure;BME280_temperature;BME280_humidity;BME280_pressure;Samples;Min_cycle;Max_cycle;Signal;HPM_P1;HPM_P2
2024/02/03 00:00:54;;;;;;;12.80;5.90;;;;;;;;;;774487;178;919436;-63
2024/02/03 00:03:20;;;;;;;11.90;6.60;;;;;;;;;;781552;178;918546;-64
2024/02/03 00:05:46;;;;;;;9.83;6.40;;;;;;;;;;781449;178;889350;-64
2024/02/03 00:08:12;;;;;;;14.63;6.60;;;;;;;;;;781608;176;919366;-63
2024/02/03 00:10:38;;;;;;;9.83;6.47;;;;;;;;;;780830;178;906118;-62
2024/02/03 00:13:03;;;;;;;10.07;7.50;;;;;;;;;;785662;175;918404;-63
2024/02/03 00:15:29;;;;;;;9.83;6.17;;;;;;;;;;777028;177;918282;-63
2024/02/03 00:17:55;;;;;;;12.00;5.67;;;;;;;;;;778886;178;917318;-63
2024/02/03 00:20:21;;;;;;;8.80;6.00;;;;;;;;;;778856;178;1016486;-63
2024/02/03 00:22:51;;;;;;;9.20;5.30;;;;;;;;;;778823;179;918178;-63
2024/02/03 00:25:13;;;;;;;9.43;5.40;;;;;;;;;;777338;177;914616;-62
2024/02/03 00:27:39;;;;;;;13.90;5.90;;;;;;;;;;785484;176;918490;-64
2024/02/03 00:30:06;;;;;;;10.03;6.30;;;;;;;;;;782286;179;915502;-62
2024/02/03 00:32:32;;;;;;;9.87;5.50;;;;;;;;;;780390;177;915551;-63
2024/02/03 00:34:58;;;;;;;10.00;5.70;;;;;;;;;;783141;178;916204;-63
2024/02/03 00:37:24;;;;;;;10.23;6.50;;;;;;;;;;787766;177;913804;-64
2024/02/03 00:39:49;;;;;;;11.20;5.90;;;;;;;;;;782374;176;919881;-63
2024/02/03 00:42:15;;;;;;;9.70;6.07;;;;;;;;;;781844;177;918372;-64
2024/02/03 00:44:41;;;;;;;9.00;5.23;;;;;;;;;;782812;175;919485;-63
2024/02/03 00:47:07;;;;;;;8.57;5.28;;;;;;;;;;776089;178;918623;-63
2024/02/03 00:49:33;;;;;;;8.13;4.90;;;;;;;;;;779921;178;920104;-64
2024/02/03 00:51:59;;;;;;;9.43;6.03;;;;;;;;;;777066;177;942389;-62
2024/02/03 00:54:25;;;;;;;11.93;5.73;;;;;;;;;;782583;178;920739;-63
2024/02/03 00:56:50;;;;;;;8.47;5.50;;;;;;;;;;783241;177;918641;-64
2024/02/03 00:59:16;;;;;;;12.87;6.60;;;;;;;;;;776372;178;919599;-63
2024/02/03 01:01:42;;;;;;;9.47;6.40;;;;;;;;;;783594;178;815219;-65
2024/02/03 01:04:08;;;;;;;12.33;7.63;;;;;;;;;;772835;178;918807;-64
2024/02/03 01:06:34;;;;;;;9.37;6.40;;;;;;;;;;776615;179;922937;-63
2024/02/03 01:09:00;;;;;;;11.17;6.37;;;;;;;;;;779166;178;919056;-63
2024/02/03 01:11:27;;;;;;;9.57;6.23;;;;;;;;;;780374;178;914201;-64
2024/02/03 01:13:51;;;;;;;11.73;7.23;;;;;;;;;;780069;174;920228;-63
2024/02/03 01:16:17;;;;;;;11.20;6.67;;;;;;;;;;756761;183;1005984;-64
2024/02/03 01:18:43;;;;;;;8.40;5.87;;;;;;;;;;747776;183;918790;-64
2024/02/03 01:21:09;;;;;;;8.40;6.33;;;;;;;;;;749480;184;918776;-62
2024/02/03 01:23:35;;;;;;;10.10;5.97;;;;;;;;;;754024;183;919386;-64
2024/02/03 01:26:01;;;;;;;11.10;7.43;;;;;;;;;;763423;182;916089;-63
2024/02/03 01:28:27;;;;;;;9.70;6.67;;;;;;;;;;754154;182;918951;-62
2024/02/03 01:30:53;;;;;;;19.67;6.80;;;;;;;;;;754002;184;919746;-63
2024/02/03 01:33:18;;;;;;;11.20;7.63;;;;;;;;;;768357;182;816850;-63
2024/02/03 01:35:44;;;;;;;9.33;6.33;;;;;;;;;;765284;181;919441;-63
2024/02/03 01:38:10;;;;;;;14.27;6.30;;;;;;;;;;753661;184;919448;-64
2024/02/03 01:40:36;;;;;;;9.70;5.70;;;;;;;;;;763217;183;815761;-63
2024/02/03 01:43:02;;;;;;;7.47;5.47;;;;;;;;;;783206;177;794906;-62
2024/02/03 01:45:27;;;;;;;9.70;6.53;;;;;;;;;;775010;179;919432;-64
2024/02/03 01:47:53;;;;;;;9.23;8.00;;;;;;;;;;784791;177;918585;-63
2024/02/03 01:50:20;;;;;;;8.53;5.83;;;;;;;;;;783720;178;919631;-64
2024/02/03 01:52:45;;;;;;;13.17;6.37;;;;;;;;;;782061;178;919160;-64
2024/02/03 01:55:11;;;;;;;12.13;6.20;;;;;;;;;;780075;177;919207;-63
2024/02/03 01:57:37;;;;;;;11.07;6.27;;;;;;;;;;784669;178;821645;-63
2024/02/03 02:00:05;;;;;;;9.00;6.30;;;;;;;;;;775563;178;918945;-63
2024/02/03 02:02:29;;;;;;;12.80;6.07;;;;;;;;;;785679;176;919372;-65
2024/02/03 02:04:54;;;;;;;9.27;5.83;;;;;;;;;;785236;178;917873;-63
2024/02/03 02:07:20;;;;;;;11.10;7.30;;;;;;;;;;775705;178;916729;-63
2024/02/03 02:09:48;;;;;;;8.20;5.50;;;;;;;;;;772841;178;919718;-63
2024/02/03 02:12:12;;;;;;;7.47;5.53;;;;;;;;;;786069;176;918687;-63
2024/02/03 02:14:38;;;;;;;9.30;6.37;;;;;;;;;;779952;179;918598;-63
2024/02/03 02:17:04;;;;;;;8.23;5.43;;;;;;;;;;778610;178;837457;-64
2024/02/03 02:19:30;;;;;;;9.13;6.50;;;;;;;;;;781996;178;817519;-65
2024/02/03 02:21:56;;;;;;;9.47;6.37;;;;;;;;;;787861;177;917305;-64
2024/02/03 02:24:22;;;;;;;9.00;5.60;;;;;;;;;;776335;178;920333;-64
2024/02/03 02:26:49;;;;;;;8.25;5.05;;;;;;;;;;780335;177;917809;-63
2024/02/03 02:29:14;;;;;;;8.27;5.90;;;;;;;;;;784205;178;918466;-63
2024/02/03 02:31:40;;;;;;;13.00;5.93;;;;;;;;;;783995;177;919186;-62
2024/02/03 02:34:06;;;;;;;11.10;6.83;;;;;;;;;;778001;177;915219;-62
2024/02/03 02:36:32;;;;;;;10.57;5.87;;;;;;;;;;786838;177;918187;-63
2024/02/03 02:38:57;;;;;;;8.70;6.13;;;;;;;;;;781786;177;816164;-64
2024/02/03 02:41:23;;;;;;;9.10;6.05;;;;;;;;;;773726;177;919333;-63
2024/02/03 02:43:49;;;;;;;10.87;6.80;;;;;;;;;;775380;178;918090;-63
2024/02/03 02:46:15;;;;;;;10.77;7.27;;;;;;;;;;785629;178;920644;-63
2024/02/03 02:48:41;;;;;;;12.87;7.03;;;;;;;;;;780728;178;918640;-62
2024/02/03 02:51:07;;;;;;;8.43;6.07;;;;;;;;;;781329;177;917275;-63
2024/02/03 02:53:32;;;;;;;12.40;6.33;;;;;;;;;;788410;177;919340;-63
2024/02/03 02:55:58;;;;;;;12.33;6.73;;;;;;;;;;782927;177;920119;-64
2024/02/03 02:58:24;;;;;;;9.80;5.55;;;;;;;;;;781852;177;902711;-63
2024/02/03 03:00:50;;;;;;;11.30;6.67;;;;;;;;;;787013;178;817999;-64
2024/02/03 03:03:16;;;;;;;9.10;5.40;;;;;;;;;;782172;177;919556;-63
2024/02/03 03:05:42;;;;;;;11.27;6.07;;;;;;;;;;781218;177;920080;-62
2024/02/03 03:08:08;;;;;;;9.27;5.87;;;;;;;;;;786086;177;918671;-64
2024/02/03 03:10:34;;;;;;;11.90;6.83;;;;;;;;;;787715;177;918873;-65
2024/02/03 03:13:00;;;;;;;11.97;6.20;;;;;;;;;;777843;178;918582;-63
2024/02/03 03:15:25;;;;;;;8.17;5.63;;;;;;;;;;778741;179;939152;-63
2024/02/03 03:17:51;;;;;;;10.30;6.90;;;;;;;;;;786599;177;919492;-64
2024/02/03 03:20:17;;;;;;;7.93;5.23;;;;;;;;;;780633;178;919580;-63
2024/02/03 03:22:43;;;;;;;9.27;5.70;;;;;;;;;;784924;177;919087;-64
2024/02/03 03:25:09;;;;;;;9.73;6.73;;;;;;;;;;787580;178;816856;-63
2024/02/03 03:27:35;;;;;;;9.10;5.47;;;;;;;;;;782430;178;816325;-62
2024/02/03 03:30:00;;;;;;;10.87;5.90;;;;;;;;;;783486;177;918955;-63
2024/02/03 03:32:26;;;;;;;8.50;5.67;;;;;;;;;;781979;178;918460;-63
2024/02/03 03:34:52;;;;;;;12.73;6.60;;;;;;;;;;779287;178;917905;-63
2024/02/03 03:37:18;;;;;;;14.80;8.13;;;;;;;;;;777772;177;841829;-64
2024/02/03 03:39:45;;;;;;;9.03;5.33;;;;;;;;;;781378;177;918141;-63
2024/02/03 03:42:10;;;;;;;9.80;5.73;;;;;;;;;;779718;177;919349;-62
2024/02/03 03:44:36;;;;;;;9.67;5.60;;;;;;;;;;779011;177;919414;-64
2024/02/03 03:47:02;;;;;;;10.23;5.53;;;;;;;;;;774648;178;918173;-63
2024/02/03 03:49:32;;;;;;;10.30;4.97;;;;;;;;;;789067;176;918894;-63
2024/02/03 03:51:53;;;;;;;11.67;6.00;;;;;;;;;;777404;178;921530;-64
2024/02/03 03:54:19;;;;;;;8.40;5.60;;;;;;;;;;781602;178;921755;-64
2024/02/03 03:56:45;;;;;;;7.10;4.57;;;;;;;;;;785698;178;918534;-63
2024/02/03 03:59:11;;;;;;;11.10;5.93;;;;;;;;;;783376;178;915450;-64
2024/02/03 04:01:37;;;;;;;11.67;6.13;;;;;;;;;;778216;178;919029;-63
2024/02/03 04:04:03;;;;;;;9.17;5.10;;;;;;;;;;789669;177;921958;-64
2024/02/03 04:06:28;;;;;;;9.57;5.10;;;;;;;;;;789306;175;918528;-64
2024/02/03 04:08:54;;;;;;;8.27;4.97;;;;;;;;;;778509;175;923508;-64
2024/02/03 04:11:20;;;;;;;14.90;5.30;;;;;;;;;;777759;179;919183;-62
2024/02/03 04:13:48;;;;;;;9.10;5.43;;;;;;;;;;782710;178;889208;-63
2024/02/03 04:16:12;;;;;;;9.33;5.27;;;;;;;;;;775784;177;919236;-64
2024/02/03 04:18:37;;;;;;;13.20;6.67;;;;;;;;;;782423;177;819125;-63
2024/02/03 04:21:03;;;;;;;9.60;5.37;;;;;;;;;;788128;177;814250;-64
2024/02/03 04:23:29;;;;;;;7.47;5.30;;;;;;;;;;781289;176;918702;-64
2024/02/03 04:25:55;;;;;;;7.40;4.50;;;;;;;;;;782562;178;919095;-62
2024/02/03 04:28:21;;;;;;;10.05;6.07;;;;;;;;;;786816;178;816793;-63
2024/02/03 04:30:47;;;;;;;7.53;4.97;;;;;;;;;;783276;177;918598;-62
2024/02/03 04:33:12;;;;;;;9.98;5.15;;;;;;;;;;779709;177;918684;-64
2024/02/03 04:35:38;;;;;;;13.70;6.10;;;;;;;;;;775494;178;922716;-63
2024/02/03 04:38:04;;;;;;;9.10;6.13;;;;;;;;;;776232;179;821999;-63
2024/02/03 04:40:30;;;;;;;10.33;5.20;;;;;;;;;;784765;177;914219;-63
2024/02/03 04:42:56;;;;;;;8.87;5.67;;;;;;;;;;776864;180;916300;-64
2024/02/03 04:45:22;;;;;;;11.50;5.60;;;;;;;;;;780006;177;915840;-65
2024/02/03 04:47:48;;;;;;;8.13;4.50;;;;;;;;;;758801;182;898883;-64
2024/02/03 04:50:13;;;;;;;11.93;6.32;;;;;;;;;;752357;184;915559;-64
2024/02/03 04:52:39;;;;;;;10.30;5.10;;;;;;;;;;756041;183;904612;-63
2024/02/03 04:55:05;;;;;;;9.13;5.87;;;;;;;;;;759201;180;913388;-63
2024/02/03 04:57:31;;;;;;;7.83;5.27;;;;;;;;;;761107;181;915110;-63
2024/02/03 04:59:57;;;;;;;8.40;5.27;;;;;;;;;;767557;180;915952;-65
2024/02/03 05:02:23;;;;;;;13.00;6.10;;;;;;;;;;765893;181;916975;-64
2024/02/03 05:04:49;;;;;;;9.33;5.50;;;;;;;;;;754501;185;919774;-63
2024/02/03 05:07:14;;;;;;;10.90;5.00;;;;;;;;;;783124;177;918733;-64
2024/02/03 05:09:40;;;;;;;13.30;5.40;;;;;;;;;;785381;178;917792;-63
2024/02/03 05:12:06;;;;;;;7.80;6.17;;;;;;;;;;778677;176;919022;-63
2024/02/03 05:14:32;;;;;;;7.15;4.93;;;;;;;;;;784098;177;910984;-63
2024/02/03 05:16:59;;;;;;;8.13;4.93;;;;;;;;;;788704;176;818415;-63
2024/02/03 05:19:25;;;;;;;9.80;5.77;;;;;;;;;;781373;178;806492;-63
2024/02/03 05:21:50;;;;;;;9.37;5.40;;;;;;;;;;780200;177;929114;-63
2024/02/03 05:24:15;;;;;;;10.05;5.82;;;;;;;;;;787528;178;918642;-63
2024/02/03 05:26:41;;;;;;;9.23;5.30;;;;;;;;;;781680;178;934005;-64
2024/02/03 05:29:07;;;;;;;10.90;5.70;;;;;;;;;;783555;178;915559;-65
2024/02/03 05:31:33;;;;;;;7.40;5.30;;;;;;;;;;777925;177;916427;-63
2024/02/03 05:33:59;;;;;;;8.43;5.20;;;;;;;;;;784925;177;915769;-64
2024/02/03 05:36:25;;;;;;;11.80;5.90;;;;;;;;;;778882;178;918467;-64
2024/02/03 05:38:50;;;;;;;9.27;6.03;;;;;;;;;;780809;178;914665;-63
2024/02/03 05:41:16;;;;;;;10.90;5.72;;;;;;;;;;785371;178;915579;-64
2024/02/03 05:43:42;;;;;;;9.40;5.50;;;;;;;;;;776482;179;957083;-65
2024/02/03 05:46:08;;;;;;;10.13;5.37;;;;;;;;;;779787;177;816790;-63
2024/02/03 05:48:34;;;;;;;12.63;5.87;;;;;;;;;;786853;174;818262;-63
2024/02/03 05:51:00;;;;;;;8.30;5.27;;;;;;;;;;781038;178;1019733;-63
2024/02/03 05:53:25;;;;;;;9.20;5.97;;;;;;;;;;780605;175;818441;-65
2024/02/03 05:55:52;;;;;;;9.17;5.47;;;;;;;;;;785152;178;918595;-64
2024/02/03 05:58:18;;;;;;;10.10;5.97;;;;;;;;;;774884;177;919386;-64
2024/02/03 06:00:44;;;;;;;8.30;5.22;;;;;;;;;;783960;176;919182;-63
2024/02/03 06:03:10;;;;;;;8.80;6.03;;;;;;;;;;778050;178;918391;-64
2024/02/03 06:05:35;;;;;;;9.80;6.00;;;;;;;;;;773375;177;920188;-65
2024/02/03 06:08:01;;;;;;;9.60;5.37;;;;;;;;;;778665;179;919936;-63
2024/02/03 06:10:27;;;;;;;8.40;5.97;;;;;;;;;;779025;178;918908;-64
2024/02/03 06:12:53;;;;;;;10.97;5.90;;;;;;;;;;789114;175;632765;-65
2024/02/03 06:15:19;;;;;;;8.35;5.15;;;;;;;;;;781730;178;918441;-64
2024/02/03 06:17:45;;;;;;;10.53;5.70;;;;;;;;;;779248;177;927301;-64
2024/02/03 06:20:11;;;;;;;7.63;5.20;;;;;;;;;;789061;178;922702;-65
2024/02/03 06:22:38;;;;;;;9.20;5.90;;;;;;;;;;777325;178;814459;-62
2024/02/03 06:25:03;;;;;;;10.63;5.87;;;;;;;;;;781815;177;919262;-63
2024/02/03 06:27:28;;;;;;;8.80;6.37;;;;;;;;;;783754;177;920604;-63
2024/02/03 06:29:54;;;;;;;8.53;5.77;;;;;;;;;;786978;177;918022;-63
2024/02/03 06:32:20;;;;;;;12.80;5.80;;;;;;;;;;782554;177;621870;-64
2024/02/03 06:34:46;;;;;;;10.33;6.27;;;;;;;;;;786127;176;626481;-64
2024/02/03 06:37:12;;;;;;;10.63;5.83;;;;;;;;;;791312;177;686815;-64
2024/02/03 06:39:38;;;;;;;9.70;6.20;;;;;;;;;;784965;178;635264;-63
2024/02/03 06:42:04;;;;;;;7.80;5.33;;;;;;;;;;785926;177;813374;-64
2024/02/03 06:44:29;;;;;;;10.77;6.10;;;;;;;;;;787325;178;621348;-64
2024/02/03 06:46:55;;;;;;;8.27;7.07;;;;;;;;;;788973;177;711305;-63
2024/02/03 06:49:21;;;;;;;9.77;6.03;;;;;;;;;;781906;178;626932;-64
2024/02/03 06:51:47;;;;;;;10.30;5.17;;;;;;;;;;787102;178;639518;-65
2024/02/03 06:54:13;;;;;;;9.30;5.70;;;;;;;;;;782607;178;815652;-64
2024/02/03 06:56:39;;;;;;;8.37;6.00;;;;;;;;;;777841;178;928491;-63
2024/02/03 06:59:04;;;;;;;11.57;6.63;;;;;;;;;;785480;178;919161;-64
2024/02/03 07:01:30;;;;;;;14.00;6.40;;;;;;;;;;786338;178;918583;-64
2024/02/03 07:03:56;;;;;;;13.17;6.67;;;;;;;;;;777176;178;919327;-63
2024/02/03 07:06:22;;;;;;;8.27;5.33;;;;;;;;;;777191;178;910943;-64
2024/02/03 07:08:48;;;;;;;11.67;6.30;;;;;;;;;;783862;177;853102;-64
2024/02/03 07:11:14;;;;;;;11.20;7.50;;;;;;;;;;776945;178;917283;-64
2024/02/03 07:13:41;;;;;;;8.07;5.15;;;;;;;;;;780276;178;873025;-64
2024/02/03 07:16:06;;;;;;;8.50;5.40;;;;;;;;;;786217;176;919436;-64
2024/02/03 07:18:31;;;;;;;8.27;5.60;;;;;;;;;;781611;178;923536;-64
2024/02/03 07:20:57;;;;;;;10.23;6.33;;;;;;;;;;779894;177;918683;-63
2024/02/03 07:23:23;;;;;;;10.53;5.60;;;;;;;;;;782235;178;919898;-64
2024/02/03 07:25:49;;;;;;;11.07;6.17;;;;;;;;;;780523;179;918739;-65
2024/02/03 07:28:15;;;;;;;9.90;5.77;;;;;;;;;;768902;178;920734;-63
2024/02/03 07:30:41;;;;;;;12.90;6.00;;;;;;;;;;780933;178;818608;-63
2024/02/03 07:33:07;;;;;;;10.20;4.80;;;;;;;;;;783770;178;873179;-63
2024/02/03 07:35:32;;;;;;;8.83;5.23;;;;;;;;;;779310;177;920956;-65
2024/02/03 07:37:58;;;;;;;8.40;5.90;;;;;;;;;;781111;177;914272;-64
2024/02/03 07:40:24;;;;;;;6.50;4.80;;;;;;;;;;787874;177;718083;-65
2024/02/03 07:42:50;;;;;;;7.70;5.07;;;;;;;;;;781695;177;920804;-66
2024/02/03 07:45:16;;;;;;;7.23;5.23;;;;;;;;;;787145;177;752162;-64
2024/02/03 07:47:42;;;;;;;10.53;5.60;;;;;;;;;;786067;178;817231;-64
2024/02/03 07:50:08;;;;;;;7.37;5.00;;;;;;;;;;775085;177;919546;-65
2024/02/03 07:52:35;;;;;;;8.70;5.43;;;;;;;;;;779190;177;921070;-65
2024/02/03 07:55:00;;;;;;;9.90;5.23;;;;;;;;;;778826;176;909458;-65
2024/02/03 07:57:26;;;;;;;11.20;6.50;;;;;;;;;;783206;178;819497;-64
2024/02/03 07:59:52;;;;;;;7.87;5.55;;;;;;;;;;782403;178;805116;-65
2024/02/03 08:02:17;;;;;;;9.40;6.10;;;;;;;;;;779571;177;835210;-65
2024/02/03 08:04:43;;;;;;;8.47;5.30;;;;;;;;;;783656;177;915671;-65
2024/02/03 08:07:09;;;;;;;9.38;5.93;;;;;;;;;;780987;177;911579;-65
2024/02/03 08:09:35;;;;;;;11.07;6.25;;;;;;;;;;780627;177;909690;-64
2024/02/03 08:12:03;;;;;;;9.05;5.15;;;;;;;;;;783892;178;914174;-64
2024/02/03 08:14:27;;;;;;;1037.03;659.33;;;;;;;;;;780629;178;810600;-65
2024/02/03 08:16:53;;;;;;;809.67;504.37;;;;;;;;;;784297;178;633940;-64
2024/02/03 08:19:18;;;;;;;466.00;371.60;;;;;;;;;;779227;179;829260;-65
2024/02/03 08:21:44;;;;;;;43.50;27.63;;;;;;;;;;789138;177;918279;-66
2024/02/03 08:24:10;;;;;;;43.27;27.23;;;;;;;;;;777193;176;798709;-65
2024/02/03 08:26:36;;;;;;;25.00;16.10;;;;;;;;;;777328;178;912724;-64
2024/02/03 08:29:02;;;;;;;185.03;91.10;;;;;;;;;;785514;177;1021648;-64
2024/02/03 08:34:20;;;;;;;11.60;7.30;;;;;;;;;;699735;189;663572;-67
2024/02/03 08:36:46;;;;;;;11.73;7.00;;;;;;;;;;734061;189;917182;-67
2024/02/03 08:39:12;;;;;;;11.00;6.93;;;;;;;;;;743745;186;907058;-68
2024/02/03 08:41:37;;;;;;;14.07;7.67;;;;;;;;;;745784;187;1224358;-67
2024/02/03 08:44:03;;;;;;;8.37;4.83;;;;;;;;;;744860;186;827777;-66
2024/02/03 08:46:29;;;;;;;24.42;17.95;;;;;;;;;;742738;186;921817;-67
2024/02/03 08:48:55;;;;;;;81.63;54.13;;;;;;;;;;762442;179;920128;-64
2024/02/03 08:51:21;;;;;;;2266.67;999.90;;;;;;;;;;765391;179;877254;-64
2024/02/03 08:53:47;;;;;;;156.03;100.33;;;;;;;;;;767195;181;625014;-65
2024/02/03 08:56:13;;;;;;;1456.97;809.77;;;;;;;;;;767006;182;906796;-63
2024/02/03 08:58:38;;;;;;;421.70;298.27;;;;;;;;;;763008;179;918755;-64
2024/02/03 09:01:04;;;;;;;139.40;108.80;;;;;;;;;;766728;179;820528;-65
2024/02/03 09:03:30;;;;;;;270.10;176.33;;;;;;;;;;763748;181;919018;-65
2024/02/03 09:05:56;;;;;;;55.07;46.73;;;;;;;;;;767436;182;689921;-63
2024/02/03 09:08:22;;;;;;;97.80;84.50;;;;;;;;;;762734;179;820089;-64
2024/02/03 09:10:48;;;;;;;740.20;547.58;;;;;;;;;;763979;179;788794;-63
2024/02/03 09:13:13;;;;;;;76.07;64.17;;;;;;;;;;770019;179;614926;-65
2024/02/03 09:15:39;;;;;;;407.57;233.80;;;;;;;;;;766616;179;624918;-63
2024/02/03 09:18:05;;;;;;;24.17;18.63;;;;;;;;;;765285;180;682622;-65
2024/02/03 09:20:31;;;;;;;11.63;8.63;;;;;;;;;;768978;179;626211;-64
2024/02/03 09:22:57;;;;;;;9.25;5.60;;;;;;;;;;766794;179;653377;-64
2024/02/03 09:25:23;;;;;;;8.93;5.17;;;;;;;;;;765609;180;629869;-64
2024/02/03 09:27:49;;;;;;;17.50;12.43;;;;;;;;;;768180;179;629565;-64
2024/02/03 09:30:15;;;;;;;37.20;27.13;;;;;;;;;;767912;182;627304;-64
2024/02/03 09:32:41;;;;;;;9.90;6.70;;;;;;;;;;764216;179;675641;-64
2024/02/03 09:35:07;;;;;;;45.03;36.23;;;;;;;;;;763936;181;639154;-65
2024/02/03 09:37:33;;;;;;;134.27;84.83;;;;;;;;;;769063;179;631788;-64
2024/02/03 09:39:59;;;;;;;531.47;359.30;;;;;;;;;;765827;179;619341;-65
2024/02/03 09:42:25;;;;;;;47.00;32.50;;;;;;;;;;764149;179;919125;-65
2024/02/03 09:44:50;;;;;;;11.07;8.80;;;;;;;;;;768215;180;720632;-65
2024/02/03 09:47:17;;;;;;;7.33;4.80;;;;;;;;;;766083;179;630242;-65
2024/02/03 09:49:43;;;;;;;13.33;10.20;;;;;;;;;;765180;179;648461;-65
2024/02/03 09:52:14;;;;;;;8.03;5.30;;;;;;;;;;766742;179;811688;-65
2024/02/03 09:54:37;;;;;;;20.90;18.30;;;;;;;;;;767551;179;653108;-65
2024/02/03 09:57:04;;;;;;;245.37;221.77;;;;;;;;;;762582;181;820895;-65
2024/02/03 09:59:29;;;;;;;9.53;5.40;;;;;;;;;;766254;179;685653;-64
2024/02/03 10:01:55;;;;;;;16.20;14.47;;;;;;;;;;770064;182;818681;-65
2024/02/03 10:04:21;;;;;;;9.10;5.07;;;;;;;;;;767725;180;635366;-65
2024/02/03 10:06:47;;;;;;;9.20;7.00;;;;;;;;;;766940;179;630168;-66
2024/02/03 10:09:19;;;;;;;5.70;4.33;;;;;;;;;;769526;180;640375;-65
2024/02/03 10:11:45;;;;;;;12.00;8.13;;;;;;;;;;762153;182;628967;-65
2024/02/03 10:14:10;;;;;;;22.70;18.83;;;;;;;;;;765638;179;642847;-64
2024/02/03 10:16:45;;;;;;;7.27;3.90;;;;;;;;;;764516;179;654574;-65
2024/02/03 10:19:11;;;;;;;15.97;11.20;;;;;;;;;;768806;181;618847;-65
2024/02/03 10:21:37;;;;;;;35.37;30.40;;;;;;;;;;765868;180;714188;-65
2024/02/03 10:24:03;;;;;;;57.73;51.27;;;;;;;;;;766816;179;651880;-65
2024/02/03 10:26:28;;;;;;;466.90;399.20;;;;;;;;;;764969;179;638112;-64
2024/02/03 10:28:54;;;;;;;230.57;194.57;;;;;;;;;;762011;182;637531;-65
2024/02/03 10:31:20;;;;;;;27.43;21.97;;;;;;;;;;764451;179;682347;-66
2024/02/03 10:33:46;;;;;;;111.93;99.60;;;;;;;;;;761664;179;900288;-66
2024/02/03 10:36:12;;;;;;;29.27;25.67;;;;;;;;;;769349;179;630856;-66
2024/02/03 10:38:39;;;;;;;36.23;31.40;;;;;;;;;;765675;180;693908;-65
2024/02/03 10:41:05;;;;;;;134.73;121.37;;;;;;;;;;765533;179;624971;-65
2024/02/03 10:43:31;;;;;;;19.20;15.83;;;;;;;;;;769026;179;627923;-65
2024/02/03 10:45:56;;;;;;;115.53;90.70;;;;;;;;;;762930;182;918796;-64
2024/02/03 10:48:22;;;;;;;97.30;78.97;;;;;;;;;;766978;179;636208;-65
2024/02/03 10:50:49;;;;;;;24.30;13.93;;;;;;;;;;764819;180;631444;-65
2024/02/03 10:53:15;;;;;;;46.97;30.63;;;;;;;;;;766672;182;642050;-65
2024/02/03 10:55:41;;;;;;;14.80;11.73;;;;;;;;;;763721;181;816802;-64
2024/02/03 10:58:06;;;;;;;22.93;17.33;;;;;;;;;;761441;179;920136;-64
2024/02/03 11:00:32;;;;;;;26.20;17.97;;;;;;;;;;768849;183;717363;-64
2024/02/03 11:02:59;;;;;;;13.20;11.40;;;;;;;;;;765329;179;816193;-66
2024/02/03 11:05:25;;;;;;;12.53;6.87;;;;;;;;;;763176;179;917898;-64
2024/02/03 11:07:51;;;;;;;4.80;2.77;;;;;;;;;;766507;179;919207;-65
2024/02/03 11:10:16;;;;;;;8.00;5.47;;;;;;;;;;767113;179;623428;-64
2024/02/03 11:12:42;;;;;;;6.63;4.57;;;;;;;;;;764605;179;919383;-66
2024/02/03 11:15:09;;;;;;;6.53;3.83;;;;;;;;;;768553;179;631404;-64
2024/02/03 11:17:35;;;;;;;4.43;3.10;;;;;;;;;;772302;180;818571;-64
2024/02/03 11:20:06;;;;;;;6.47;3.70;;;;;;;;;;764957;180;758004;-64
2024/02/03 11:22:27;;;;;;;6.57;3.50;;;;;;;;;;763129;179;918967;-66
2024/02/03 11:24:53;;;;;;;8.13;3.17;;;;;;;;;;769034;179;845989;-65
2024/02/03 11:27:19;;;;;;;6.40;3.83;;;;;;;;;;767456;179;626073;-65
2024/02/03 11:29:44;;;;;;;6.57;4.40;;;;;;;;;;766593;179;620992;-66
2024/02/03 11:32:14;;;;;;;5.10;3.10;;;;;;;;;;769811;179;618650;-67
2024/02/03 11:34:37;;;;;;;7.43;3.37;;;;;;;;;;766580;180;628084;-66
2024/02/03 11:37:03;;;;;;;5.70;3.50;;;;;;;;;;767105;182;619460;-66
2024/02/03 11:39:34;;;;;;;5.87;3.50;;;;;;;;;;768507;180;635272;-67
2024/02/03 11:41:58;;;;;;;7.90;3.43;;;;;;;;;;768179;182;630380;-66
2024/02/03 11:44:27;;;;;;;12.10;4.10;;;;;;;;;;765694;179;631134;-67
2024/02/03 11:46:53;;;;;;;4.23;2.93;;;;;;;;;;764077;179;645501;-66
2024/02/03 11:49:19;;;;;;;4.87;3.23;;;;;;;;;;769270;179;627246;-66
2024/02/03 11:51:45;;;;;;;3.77;2.37;;;;;;;;;;767036;179;630069;-66
2024/02/03 11:54:10;;;;;;;6.40;3.17;;;;;;;;;;766228;180;706917;-65
2024/02/03 11:56:36;;;;;;;5.70;3.67;;;;;;;;;;769049;180;614028;-66
2024/02/03 11:59:02;;;;;;;7.17;3.13;;;;;;;;;;765795;181;627913;-67
2024/02/03 12:01:30;;;;;;;5.67;3.40;;;;;;;;;;764122;180;823402;-67
2024/02/03 12:03:54;;;;;;;5.17;3.70;;;;;;;;;;762685;180;802367;-66
2024/02/03 12:06:21;;;;;;;4.70;2.53;;;;;;;;;;766683;180;817528;-66
2024/02/03 12:08:45;;;;;;;5.20;3.15;;;;;;;;;;763094;179;840373;-65
2024/02/03 12:11:11;;;;;;;5.53;3.43;;;;;;;;;;761084;179;913415;-66
2024/02/03 12:13:37;;;;;;;4.90;2.97;;;;;;;;;;765809;180;916795;-65
2024/02/03 12:16:03;;;;;;;6.57;3.20;;;;;;;;;;763302;179;738536;-65
2024/02/03 12:18:29;;;;;;;5.70;3.20;;;;;;;;;;761486;179;891041;-65
2024/02/03 12:20:55;;;;;;;3.70;2.10;;;;;;;;;;766833;180;821040;-66
2024/02/03 12:23:22;;;;;;;4.90;2.60;;;;;;;;;;765899;178;813203;-66
2024/02/03 12:25:48;;;;;;;4.57;2.92;;;;;;;;;;763834;179;820376;-66
2024/02/03 12:28:14;;;;;;;4.60;3.10;;;;;;;;;;766441;179;648838;-66
2024/02/03 12:30:39;;;;;;;4.53;2.53;;;;;;;;;;769152;181;731522;-66
2024/02/03 12:33:07;;;;;;;5.60;2.80;;;;;;;;;;765310;179;629695;-65
2024/02/03 12:35:31;;;;;;;4.53;1.93;;;;;;;;;;762189;179;842876;-65
2024/02/03 12:37:57;;;;;;;4.70;2.67;;;;;;;;;;768526;179;737459;-65
2024/02/03 12:40:23;;;;;;;5.57;2.83;;;;;;;;;;764962;179;919539;-64
2024/02/03 12:42:49;;;;;;;4.23;2.40;;;;;;;;;;765664;179;731885;-66
2024/02/03 12:45:14;;;;;;;5.10;2.00;;;;;;;;;;768503;179;925164;-65
2024/02/03 12:47:40;;;;;;;3.20;2.10;;;;;;;;;;765463;179;814880;-65
2024/02/03 12:50:07;;;;;;;5.20;3.00;;;;;;;;;;763281;179;884551;-65
2024/02/03 12:52:34;;;;;;;3.55;2.30;;;;;;;;;;766367;179;820350;-65
2024/02/03 12:54:59;;;;;;;3.50;2.10;;;;;;;;;;771221;180;715043;-66
2024/02/03 12:57:25;;;;;;;4.97;2.50;;;;;;;;;;763048;181;811990;-66
2024/02/03 12:59:51;;;;;;;5.20;2.30;;;;;;;;;;762447;179;939951;-66
2024/02/03 13:02:17;;;;;;;4.47;2.40;;;;;;;;;;765351;180;915885;-63
2024/02/03 13:04:43;;;;;;;3.27;2.20;;;;;;;;;;762556;179;914985;-62
2024/02/03 13:07:13;;;;;;;4.17;2.10;;;;;;;;;;763966;181;892491;-64
2024/02/03 13:09:35;;;;;;;3.40;2.00;;;;;;;;;;766248;179;904832;-62
2024/02/03 13:12:01;;;;;;;6.00;2.40;;;;;;;;;;762763;179;916970;-62
2024/02/03 13:14:27;;;;;;;3.60;2.13;;;;;;;;;;763582;179;815863;-63
2024/02/03 13:16:53;;;;;;;3.93;2.20;;;;;;;;;;766898;183;922654;-64
2024/02/03 13:19:19;;;;;;;5.10;2.00;;;;;;;;;;763330;183;918033;-66
2024/02/03 13:21:44;;;;;;;4.17;2.03;;;;;;;;;;762755;179;809223;-64
2024/02/03 13:24:10;;;;;;;3.20;1.80;;;;;;;;;;760810;179;922103;-64
2024/02/03 13:26:37;;;;;;;2.97;1.73;;;;;;;;;;767291;183;913809;-62
2024/02/03 13:29:02;;;;;;;5.15;1.90;;;;;;;;;;763524;179;919682;-62
2024/02/03 13:31:28;;;;;;;6.30;2.63;;;;;;;;;;763325;179;799272;-61
2024/02/03 13:33:54;;;;;;;3.60;1.87;;;;;;;;;;769779;180;920202;-61
2024/02/03 13:36:20;;;;;;;3.73;2.07;;;;;;;;;;765205;179;839908;-64
2024/02/03 13:38:46;;;;;;;8.18;2.58;;;;;;;;;;762532;179;915380;-64
2024/02/03 13:41:12;;;;;;;4.27;2.33;;;;;;;;;;766788;179;942583;-65
2024/02/03 13:43:39;;;;;;;5.40;2.60;;;;;;;;;;762312;179;920706;-63
2024/02/03 13:46:04;;;;;;;5.87;2.20;;;;;;;;;;762699;179;919189;-64
2024/02/03 13:48:30;;;;;;;4.33;1.73;;;;;;;;;;765766;179;615825;-65
2024/02/03 13:50:56;;;;;;;4.67;2.43;;;;;;;;;;770577;181;651501;-65
2024/02/03 13:53:22;;;;;;;7.00;3.87;;;;;;;;;;765496;180;625643;-65
2024/02/03 13:55:48;;;;;;;6.03;2.30;;;;;;;;;;765738;179;620126;-63
2024/02/03 13:58:14;;;;;;;5.10;1.70;;;;;;;;;;769551;179;631201;-64
2024/02/03 14:00:40;;;;;;;7.43;2.43;;;;;;;;;;766666;179;668509;-66
2024/02/03 14:03:06;;;;;;;5.40;2.40;;;;;;;;;;766332;181;642473;-64
2024/02/03 14:05:32;;;;;;;5.20;2.57;;;;;;;;;;769200;179;630468;-69
2024/02/03 14:07:58;;;;;;;4.07;2.47;;;;;;;;;;764572;179;657220;-68
2024/02/03 14:10:24;;;;;;;7.55;3.00;;;;;;;;;;761362;179;817734;-69
2024/02/03 14:12:51;;;;;;;8.07;2.70;;;;;;;;;;762221;179;813028;-68
2024/02/03 14:15:15;;;;;;;6.93;3.00;;;;;;;;;;764271;180;897981;-68